logo dgac
Miércoles 05 de Octubre del 2022
Buscar por aerodromo o helipuerto
Ingrese nombre de aeródromo, localidad o designador OACI:

Aeródromo: Teniente Vidal (PUB) (SCCY)

Ubicación: Coyhaique, XI Región, Chile (45º 35' 37'' S, 72º 06' 19'' W) Ver ubicación en el mapa

Pistas

Orientación Dimensión Pendiente Superficie Resistencia APCH THR RWY PAPI
03/21 1546 x 30 FM THR 21 - 246m CONC 1.300 m ASPH PCN 30 F/B/X/T No No
Horas de operación HJ
Elevación 311 m / 1020 ft
Otra Información Adm : D.G.A.C.
Uso : PUB
ubicado 5 km SW Coyhaique
TEL/FAX 67 2235003 CEL TWR/AFIS +56 961740691
email : afis.ttevidal@dgac.gob.cl

Otra información ver AIP-Chile Volumen I AD 3.9-3.13-C

CCCM/FCCV Descargar
andera de Chile
Mapa de Teniente Vidal (PUB) (SCCY)

Último METAR

METAR SCCY 050100Z AUTO VRB02KT 9999 -RA OVC046 08/05 Q1011

Último TAF

TAF SCCY 041023Z 0412/0500 03005KT 8000 -SHRA FEW020 BKN040 TN07/0412Z TX11/0418Z BECMG 0413/0415 28008KT 9999 NSW SCT040 TEMPO 0416/0419 8000 -SHRA BKN035

Últimas fotos cámaras

Imagen aerodromo Teniente Vidal (PUB) (SCCY) N-Este tomada el 07-09-2022 08:43:37 Imagen aerodromo Teniente Vidal (PUB) (SCCY) Sur tomada el 05-10-2022 01:43:26

Último NOTAM

C4386/22 NOTAMN Q)SCTZ/QSFAH/IV/B/A/000/999/4536S07206W005 A)SCCY B)2210012011 C)2210312300 D)DLY BTN 1030-2300 E)AFIS HR ATTN